Collinsville, Virginia
Current Conditions -  °F | °C
As of 3:15 PM on Monday 26 Jan 2015 (Local Time) from KMTV Reporting Station
Overcast Overcast  
Wind Chill: 47°   Ceiling: 4900
Heat Index: 47°   Visibility: 10mi
Dew Point: 38°   Wind: 3mph
Humidity: 72%   Direction: 100°E
Pressure: 29.63"   Gusts: NA
Location:  36.72°N, 79.91°W
Report Text: KMTV 262015Z AUTO 10003KT 10SM OVC049 08/04 A2963 RMK AO2 T00820035
Loading
Personal Weather Stations






























Interactive Weather Map New forecast layout! Learn more

10-Day Weather Forecast

Advertisements
Track Severe Weather on mobile